sensor_id;sensor_type;location;lat;lon;timestamp;P1;durP1;ratioP1;P2;durP2;ratioP2
34828;SDS011;21042;47.620;12.188;2023-11-18T00:00:55;11.43;;;5.50;;
34828;SDS011;21042;47.620;12.188;2023-11-18T00:03:22;9.15;;;5.47;;
34828;SDS011;21042;47.620;12.188;2023-11-18T00:08:16;8.85;;;5.05;;
34828;SDS011;21042;47.620;12.188;2023-11-18T00:10:43;10.85;;;5.25;;
34828;SDS011;21042;47.620;12.188;2023-11-18T00:13:09;8.50;;;4.30;;
34828;SDS011;21042;47.620;12.188;2023-11-18T00:15:36;7.25;;;3.97;;
34828;SDS011;21042;47.620;12.188;2023-11-18T00:18:03;9.18;;;4.10;;
34828;SDS011;21042;47.620;12.188;2023-11-18T00:20:30;10.43;;;4.10;;
34828;SDS011;21042;47.620;12.188;2023-11-18T00:25:24;5.18;;;2.90;;
34828;SDS011;21042;47.620;12.188;2023-11-18T00:27:51;5.57;;;2.95;;
34828;SDS011;21042;47.620;12.188;2023-11-18T00:30:18;5.10;;;2.90;;
34828;SDS011;21042;47.620;12.188;2023-11-18T00:32:45;6.93;;;3.28;;
34828;SDS011;21042;47.620;12.188;2023-11-18T00:35:12;13.07;;;5.47;;
34828;SDS011;21042;47.620;12.188;2023-11-18T00:37:38;12.85;;;5.80;;
34828;SDS011;21042;47.620;12.188;2023-11-18T00:42:33;16.30;;;7.60;;
34828;SDS011;21042;47.620;12.188;2023-11-18T00:45:00;14.57;;;7.55;;
34828;SDS011;21042;47.620;12.188;2023-11-18T00:47:27;14.32;;;7.82;;
34828;SDS011;21042;47.620;12.188;2023-11-18T00:49:54;14.45;;;7.50;;
34828;SDS011;21042;47.620;12.188;2023-11-18T00:52:21;12.32;;;6.25;;
34828;SDS011;21042;47.620;12.188;2023-11-18T00:54:48;9.60;;;5.38;;
34828;SDS011;21042;47.620;12.188;2023-11-18T00:57:15;8.98;;;5.47;;
34828;SDS011;21042;47.620;12.188;2023-11-18T00:59:43;5.63;;;3.45;;
34828;SDS011;21042;47.620;12.188;2023-11-18T01:02:10;6.68;;;3.45;;
34828;SDS011;21042;47.620;12.188;2023-11-18T01:04:37;3.88;;;1.92;;
34828;SDS011;21042;47.620;12.188;2023-11-18T01:07:05;4.47;;;2.67;;
34828;SDS011;21042;47.620;12.188;2023-11-18T01:09:32;6.60;;;2.65;;
34828;SDS011;21042;47.620;12.188;2023-11-18T01:12:05;4.57;;;2.80;;
34828;SDS011;21042;47.620;12.188;2023-11-18T01:14:36;6.57;;;3.70;;
34828;SDS011;21042;47.620;12.188;2023-11-18T01:17:05;14.32;;;7.35;;
34828;SDS011;21042;47.620;12.188;2023-11-18T01:19:32;17.77;;;8.68;;
34828;SDS011;21042;47.620;12.188;2023-11-18T01:22:02;14.15;;;7.93;;
34828;SDS011;21042;47.620;12.188;2023-11-18T01:24:32;12.45;;;6.63;;
34828;SDS011;21042;47.620;12.188;2023-11-18T01:26:59;11.32;;;6.03;;
34828;SDS011;21042;47.620;12.188;2023-11-18T01:29:26;11.10;;;5.20;;
34828;SDS011;21042;47.620;12.188;2023-11-18T01:31:53;7.25;;;4.07;;
34828;SDS011;21042;47.620;12.188;2023-11-18T01:34:22;7.85;;;3.80;;
34828;SDS011;21042;47.620;12.188;2023-11-18T01:36:49;7.15;;;3.35;;
34828;SDS011;21042;47.620;12.188;2023-11-18T01:39:17;8.10;;;4.03;;
34828;SDS011;21042;47.620;12.188;2023-11-18T01:41:45;6.15;;;3.60;;
34828;SDS011;21042;47.620;12.188;2023-11-18T01:44:12;9.07;;;5.05;;
34828;SDS011;21042;47.620;12.188;2023-11-18T01:46:41;7.43;;;4.68;;
34828;SDS011;21042;47.620;12.188;2023-11-18T01:49:12;7.47;;;4.30;;
34828;SDS011;21042;47.620;12.188;2023-11-18T01:51:44;8.43;;;4.68;;
34828;SDS011;21042;47.620;12.188;2023-11-18T01:54:12;10.38;;;5.63;;
34828;SDS011;21042;47.620;12.188;2023-11-18T01:56:45;12.45;;;7.25;;
34828;SDS011;21042;47.620;12.188;2023-11-18T01:59:13;18.58;;;8.95;;
34828;SDS011;21042;47.620;12.188;2023-11-18T02:01:48;12.55;;;7.13;;
34828;SDS011;21042;47.620;12.188;2023-11-18T02:04:16;13.88;;;7.18;;
34828;SDS011;21042;47.620;12.188;2023-11-18T02:06:47;11.18;;;6.50;;
34828;SDS011;21042;47.620;12.188;2023-11-18T02:09:15;8.77;;;5.25;;
34828;SDS011;21042;47.620;12.188;2023-11-18T02:14:49;6.47;;;3.88;;
34828;SDS011;21042;47.620;12.188;2023-11-18T02:17:21;7.35;;;3.72;;
34828;SDS011;21042;47.620;12.188;2023-11-18T02:19:51;9.02;;;4.85;;
34828;SDS011;21042;47.620;12.188;2023-11-18T02:22:19;12.70;;;7.28;;
34828;SDS011;21042;47.620;12.188;2023-11-18T02:24:48;13.25;;;7.55;;
34828;SDS011;21042;47.620;12.188;2023-11-18T02:27:16;15.63;;;8.85;;
34828;SDS011;21042;47.620;12.188;2023-11-18T02:29:46;18.30;;;10.40;;
34828;SDS011;21042;47.620;12.188;2023-11-18T02:37:40;33.20;;;17.15;;
34828;SDS011;21042;47.620;12.188;2023-11-18T02:40:12;30.80;;;15.90;;
34828;SDS011;21042;47.620;12.188;2023-11-18T02:42:43;24.77;;;13.02;;
34828;SDS011;21042;47.620;12.188;2023-11-18T02:45:12;22.02;;;10.85;;
34828;SDS011;21042;47.620;12.188;2023-11-18T02:47:46;21.33;;;11.32;;
34828;SDS011;21042;47.620;12.188;2023-11-18T02:50:14;19.17;;;10.85;;
34828;SDS011;21042;47.620;12.188;2023-11-18T02:52:42;16.38;;;7.70;;
34828;SDS011;21042;47.620;12.188;2023-11-18T02:55:09;23.35;;;10.30;;
34828;SDS011;21042;47.620;12.188;2023-11-18T02:57:37;20.55;;;10.57;;
34828;SDS011;21042;47.620;12.188;2023-11-18T03:00:05;21.50;;;11.25;;
34828;SDS011;21042;47.620;12.188;2023-11-18T03:02:37;23.75;;;12.38;;
34828;SDS011;21042;47.620;12.188;2023-11-18T03:05:06;13.75;;;8.00;;
34828;SDS011;21042;47.620;12.188;2023-11-18T03:07:34;9.60;;;5.50;;
34828;SDS011;21042;47.620;12.188;2023-11-18T03:10:01;8.20;;;4.10;;
34828;SDS011;21042;47.620;12.188;2023-11-18T03:12:27;6.38;;;3.95;;
34828;SDS011;21042;47.620;12.188;2023-11-18T03:14:54;9.48;;;3.95;;
34828;SDS011;21042;47.620;12.188;2023-11-18T03:17:21;5.38;;;3.45;;
34828;SDS011;21042;47.620;12.188;2023-11-18T03:22:17;6.37;;;3.30;;
34828;SDS011;21042;47.620;12.188;2023-11-18T03:24:43;13.85;;;6.72;;
34828;SDS011;21042;47.620;12.188;2023-11-18T03:27:10;25.80;;;13.02;;
34828;SDS011;21042;47.620;12.188;2023-11-18T03:29:37;35.05;;;16.02;;
34828;SDS011;21042;47.620;12.188;2023-11-18T03:32:04;26.90;;;14.15;;
34828;SDS011;21042;47.620;12.188;2023-11-18T03:34:31;25.52;;;13.90;;
34828;SDS011;21042;47.620;12.188;2023-11-18T03:39:26;21.13;;;10.68;;
34828;SDS011;21042;47.620;12.188;2023-11-18T03:41:53;10.15;;;5.07;;
34828;SDS011;21042;47.620;12.188;2023-11-18T03:44:23;8.00;;;4.28;;
34828;SDS011;21042;47.620;12.188;2023-11-18T03:46:50;7.18;;;3.15;;
34828;SDS011;21042;47.620;12.188;2023-11-18T03:49:17;5.68;;;3.35;;
34828;SDS011;21042;47.620;12.188;2023-11-18T03:51:45;4.47;;;2.50;;
34828;SDS011;21042;47.620;12.188;2023-11-18T03:54:12;4.80;;;2.55;;
34828;SDS011;21042;47.620;12.188;2023-11-18T03:59:06;5.00;;;2.22;;
34828;SDS011;21042;47.620;12.188;2023-11-18T04:01:33;3.75;;;1.88;;
34828;SDS011;21042;47.620;12.188;2023-11-18T04:04:00;4.72;;;2.45;;
34828;SDS011;21042;47.620;12.188;2023-11-18T04:06:27;4.15;;;2.38;;
34828;SDS011;21042;47.620;12.188;2023-11-18T04:08:54;3.90;;;1.85;;
34828;SDS011;21042;47.620;12.188;2023-11-18T04:11:21;4.47;;;2.20;;
34828;SDS011;21042;47.620;12.188;2023-11-18T04:13:48;4.72;;;2.60;;
34828;SDS011;21042;47.620;12.188;2023-11-18T04:16:15;4.53;;;2.40;;
34828;SDS011;21042;47.620;12.188;2023-11-18T04:18:43;4.00;;;2.72;;
34828;SDS011;21042;47.620;12.188;2023-11-18T04:21:11;4.95;;;2.40;;
34828;SDS011;21042;47.620;12.188;2023-11-18T04:23:40;4.90;;;2.45;;
34828;SDS011;21042;47.620;12.188;2023-11-18T04:26:08;3.25;;;2.00;;
34828;SDS011;21042;47.620;12.188;2023-11-18T04:31:03;4.28;;;2.28;;
34828;SDS011;21042;47.620;12.188;2023-11-18T04:33:31;7.55;;;3.75;;
34828;SDS011;21042;47.620;12.188;2023-11-18T04:35:59;8.90;;;4.85;;
34828;SDS011;21042;47.620;12.188;2023-11-18T04:38:26;8.27;;;5.00;;
34828;SDS011;21042;47.620;12.188;2023-11-18T04:40:53;7.07;;;4.07;;
34828;SDS011;21042;47.620;12.188;2023-11-18T04:43:21;8.75;;;4.82;;
34828;SDS011;21042;47.620;12.188;2023-11-18T04:46:06;3.17;;;1.52;;
34828;SDS011;21042;47.620;12.188;2023-11-18T04:48:33;3.85;;;1.58;;
34828;SDS011;21042;47.620;12.188;2023-11-18T04:51:05;3.33;;;1.80;;
34828;SDS011;21042;47.620;12.188;2023-11-18T04:53:32;1.98;;;1.50;;
34828;SDS011;21042;47.620;12.188;2023-11-18T04:56:00;2.08;;;1.30;;
34828;SDS011;21042;47.620;12.188;2023-11-18T04:58:27;1.30;;;1.00;;
34828;SDS011;21042;47.620;12.188;2023-11-18T05:03:21;3.58;;;1.33;;
34828;SDS011;21042;47.620;12.188;2023-11-18T05:05:50;3.13;;;1.33;;
34828;SDS011;21042;47.620;12.188;2023-11-18T05:08:19;1.98;;;1.38;;
34828;SDS011;21042;47.620;12.188;2023-11-18T05:10:47;2.80;;;1.38;;
34828;SDS011;21042;47.620;12.188;2023-11-18T05:13:16;3.38;;;1.63;;
34828;SDS011;21042;47.620;12.188;2023-11-18T05:15:43;2.20;;;1.30;;
34828;SDS011;21042;47.620;12.188;2023-11-18T05:18:14;2.38;;;1.20;;
34828;SDS011;21042;47.620;12.188;2023-11-18T05:20:45;4.18;;;1.45;;
34828;SDS011;21042;47.620;12.188;2023-11-18T05:23:12;2.42;;;1.20;;
34828;SDS011;21042;47.620;12.188;2023-11-18T05:25:39;4.35;;;1.42;;
34828;SDS011;21042;47.620;12.188;2023-11-18T05:30:35;1.67;;;1.20;;
34828;SDS011;21042;47.620;12.188;2023-11-18T05:33:02;1.73;;;1.30;;
34828;SDS011;21042;47.620;12.188;2023-11-18T05:35:33;3.17;;;1.70;;
34828;SDS011;21042;47.620;12.188;2023-11-18T05:38:01;1.98;;;1.17;;
34828;SDS011;21042;47.620;12.188;2023-11-18T05:40:32;2.08;;;1.38;;
34828;SDS011;21042;47.620;12.188;2023-11-18T05:43:02;2.83;;;1.40;;
34828;SDS011;21042;47.620;12.188;2023-11-18T05:45:32;2.75;;;1.23;;
34828;SDS011;21042;47.620;12.188;2023-11-18T05:50:38;1.85;;;1.10;;
34828;SDS011;21042;47.620;12.188;2023-11-18T05:53:05;1.98;;;1.10;;
34828;SDS011;21042;47.620;12.188;2023-11-18T05:55:32;6.18;;;1.30;;
34828;SDS011;21042;47.620;12.188;2023-11-18T05:57:58;1.20;;;1.08;;
34828;SDS011;21042;47.620;12.188;2023-11-18T06:03:06;1.95;;;1.02;;
34828;SDS011;21042;47.620;12.188;2023-11-18T06:05:33;2.08;;;0.90;;
34828;SDS011;21042;47.620;12.188;2023-11-18T06:08:01;1.00;;;0.88;;
34828;SDS011;21042;47.620;12.188;2023-11-18T06:10:28;1.25;;;0.85;;
34828;SDS011;21042;47.620;12.188;2023-11-18T06:12:57;0.98;;;0.80;;
34828;SDS011;21042;47.620;12.188;2023-11-18T06:15:24;1.45;;;0.93;;
34828;SDS011;21042;47.620;12.188;2023-11-18T06:17:51;1.55;;;1.30;;
34828;SDS011;21042;47.620;12.188;2023-11-18T06:20:18;2.78;;;1.15;;
34828;SDS011;21042;47.620;12.188;2023-11-18T06:22:46;2.65;;;1.00;;
34828;SDS011;21042;47.620;12.188;2023-11-18T06:25:13;2.20;;;1.00;;
34828;SDS011;21042;47.620;12.188;2023-11-18T06:27:40;1.05;;;0.80;;
34828;SDS011;21042;47.620;12.188;2023-11-18T06:30:07;2.13;;;1.40;;
34828;SDS011;21042;47.620;12.188;2023-11-18T06:32:34;2.15;;;1.40;;
34828;SDS011;21042;47.620;12.188;2023-11-18T06:35:00;1.83;;;1.10;;
34828;SDS011;21042;47.620;12.188;2023-11-18T06:37:32;1.20;;;0.98;;
34828;SDS011;21042;47.620;12.188;2023-11-18T06:40:00;1.67;;;1.20;;
34828;SDS011;21042;47.620;12.188;2023-11-18T06:42:27;2.45;;;0.88;;
34828;SDS011;21042;47.620;12.188;2023-11-18T06:44:54;2.47;;;0.75;;
34828;SDS011;21042;47.620;12.188;2023-11-18T06:47:21;1.42;;;0.88;;
34828;SDS011;21042;47.620;12.188;2023-11-18T06:49:49;1.63;;;1.15;;
34828;SDS011;21042;47.620;12.188;2023-11-18T06:52:18;2.63;;;2.00;;
34828;SDS011;21042;47.620;12.188;2023-11-18T06:54:45;2.83;;;1.80;;
34828;SDS011;21042;47.620;12.188;2023-11-18T06:57:12;7.28;;;4.32;;
34828;SDS011;21042;47.620;12.188;2023-11-18T06:59:38;8.07;;;5.35;;
34828;SDS011;21042;47.620;12.188;2023-11-18T07:02:05;5.90;;;3.90;;
34828;SDS011;21042;47.620;12.188;2023-11-18T07:06:59;2.78;;;2.00;;
34828;SDS011;21042;47.620;12.188;2023-11-18T07:09:28;2.95;;;1.70;;
34828;SDS011;21042;47.620;12.188;2023-11-18T07:11:54;2.08;;;1.48;;
34828;SDS011;21042;47.620;12.188;2023-11-18T07:14:22;3.50;;;1.83;;
34828;SDS011;21042;47.620;12.188;2023-11-18T07:16:49;4.18;;;2.80;;
34828;SDS011;21042;47.620;12.188;2023-11-18T07:19:16;5.53;;;2.17;;
34828;SDS011;21042;47.620;12.188;2023-11-18T07:21:49;46.90;;;18.00;;
34828;SDS011;21042;47.620;12.188;2023-11-18T07:24:17;42.90;;;16.67;;
34828;SDS011;21042;47.620;12.188;2023-11-18T07:26:44;56.88;;;21.73;;
34828;SDS011;21042;47.620;12.188;2023-11-18T07:29:12;19.13;;;10.00;;
34828;SDS011;21042;47.620;12.188;2023-11-18T07:31:38;18.67;;;6.57;;
34828;SDS011;21042;47.620;12.188;2023-11-18T07:34:05;9.43;;;3.95;;
34828;SDS011;21042;47.620;12.188;2023-11-18T07:36:32;7.35;;;3.95;;
34828;SDS011;21042;47.620;12.188;2023-11-18T07:38:59;8.70;;;4.22;;
34828;SDS011;21042;47.620;12.188;2023-11-18T07:41:27;12.75;;;5.85;;
34828;SDS011;21042;47.620;12.188;2023-11-18T07:43:58;10.32;;;4.70;;
34828;SDS011;21042;47.620;12.188;2023-11-18T07:46:25;12.68;;;6.50;;
34828;SDS011;21042;47.620;12.188;2023-11-18T07:48:52;6.68;;;4.05;;
34828;SDS011;21042;47.620;12.188;2023-11-18T07:53:50;3.58;;;2.55;;
34828;SDS011;21042;47.620;12.188;2023-11-18T07:56:17;3.83;;;2.70;;
34828;SDS011;21042;47.620;12.188;2023-11-18T07:58:44;5.50;;;3.42;;
34828;SDS011;21042;47.620;12.188;2023-11-18T08:01:14;6.15;;;3.20;;
34828;SDS011;21042;47.620;12.188;2023-11-18T08:03:42;3.30;;;2.10;;
34828;SDS011;21042;47.620;12.188;2023-11-18T08:06:10;3.90;;;2.03;;
34828;SDS011;21042;47.620;12.188;2023-11-18T08:08:38;3.58;;;2.22;;
34828;SDS011;21042;47.620;12.188;2023-11-18T08:11:05;4.18;;;2.47;;
34828;SDS011;21042;47.620;12.188;2023-11-18T08:13:33;6.65;;;3.75;;
34828;SDS011;21042;47.620;12.188;2023-11-18T08:16:00;3.10;;;2.25;;
34828;SDS011;21042;47.620;12.188;2023-11-18T08:18:27;3.03;;;2.30;;
34828;SDS011;21042;47.620;12.188;2023-11-18T08:20:57;13.27;;;7.43;;
34828;SDS011;21042;47.620;12.188;2023-11-18T08:23:26;14.88;;;9.13;;
34828;SDS011;21042;47.620;12.188;2023-11-18T08:25:54;22.38;;;11.35;;
34828;SDS011;21042;47.620;12.188;2023-11-18T08:30:48;22.85;;;11.40;;
34828;SDS011;21042;47.620;12.188;2023-11-18T08:33:17;24.25;;;12.32;;
34828;SDS011;21042;47.620;12.188;2023-11-18T08:35:45;24.52;;;13.43;;
34828;SDS011;21042;47.620;12.188;2023-11-18T08:38:12;18.08;;;10.05;;
34828;SDS011;21042;47.620;12.188;2023-11-18T08:40:39;22.88;;;13.15;;
34828;SDS011;21042;47.620;12.188;2023-11-18T08:43:06;24.65;;;12.30;;
34828;SDS011;21042;47.620;12.188;2023-11-18T08:45:34;22.65;;;11.93;;
34828;SDS011;21042;47.620;12.188;2023-11-18T08:48:03;29.42;;;15.02;;
34828;SDS011;21042;47.620;12.188;2023-11-18T08:50:35;24.20;;;13.55;;
34828;SDS011;21042;47.620;12.188;2023-11-18T08:53:02;24.90;;;14.73;;
34828;SDS011;21042;47.620;12.188;2023-11-18T08:55:36;23.73;;;13.00;;
34828;SDS011;21042;47.620;12.188;2023-11-18T08:58:09;15.25;;;9.15;;
34828;SDS011;21042;47.620;12.188;2023-11-18T09:00:55;18.05;;;9.88;;
34828;SDS011;21042;47.620;12.188;2023-11-18T09:03:31;16.75;;;8.70;;
34828;SDS011;21042;47.620;12.188;2023-11-18T09:06:03;19.15;;;10.70;;
34828;SDS011;21042;47.620;12.188;2023-11-18T09:08:35;14.13;;;8.48;;
34828;SDS011;21042;47.620;12.188;2023-11-18T09:11:05;12.75;;;8.13;;
34828;SDS011;21042;47.620;12.188;2023-11-18T09:13:34;15.00;;;8.85;;
34828;SDS011;21042;47.620;12.188;2023-11-18T09:16:04;17.67;;;8.93;;
34828;SDS011;21042;47.620;12.188;2023-11-18T09:18:36;15.15;;;8.50;;
34828;SDS011;21042;47.620;12.188;2023-11-18T09:21:09;15.60;;;8.98;;
34828;SDS011;21042;47.620;12.188;2023-11-18T09:23:42;16.75;;;9.25;;
34828;SDS011;21042;47.620;12.188;2023-11-18T09:26:10;20.58;;;9.60;;
34828;SDS011;21042;47.620;12.188;2023-11-18T09:28:37;13.73;;;7.50;;
34828;SDS011;21042;47.620;12.188;2023-11-18T09:31:05;14.88;;;8.43;;
34828;SDS011;21042;47.620;12.188;2023-11-18T09:33:33;15.50;;;8.35;;
34828;SDS011;21042;47.620;12.188;2023-11-18T09:36:01;18.73;;;9.48;;
34828;SDS011;21042;47.620;12.188;2023-11-18T09:38:30;21.70;;;11.25;;
34828;SDS011;21042;47.620;12.188;2023-11-18T09:40:59;20.08;;;11.60;;
34828;SDS011;21042;47.620;12.188;2023-11-18T09:43:35;18.23;;;9.23;;
34828;SDS011;21042;47.620;12.188;2023-11-18T09:46:09;12.82;;;7.38;;
34828;SDS011;21042;47.620;12.188;2023-11-18T09:53:53;11.48;;;7.38;;
34828;SDS011;21042;47.620;12.188;2023-11-18T09:56:27;10.48;;;6.88;;
34828;SDS011;21042;47.620;12.188;2023-11-18T09:59:31;17.80;;;8.52;;
34828;SDS011;21042;47.620;12.188;2023-11-18T10:02:05;10.85;;;6.80;;
34828;SDS011;21042;47.620;12.188;2023-11-18T10:04:39;14.93;;;7.57;;
34828;SDS011;21042;47.620;12.188;2023-11-18T10:07:08;14.95;;;7.78;;
34828;SDS011;21042;47.620;12.188;2023-11-18T10:09:37;13.45;;;6.88;;
34828;SDS011;21042;47.620;12.188;2023-11-18T10:12:08;12.13;;;7.47;;
34828;SDS011;21042;47.620;12.188;2023-11-18T10:14:40;11.07;;;6.53;;
34828;SDS011;21042;47.620;12.188;2023-11-18T10:17:10;11.38;;;6.78;;
34828;SDS011;21042;47.620;12.188;2023-11-18T10:19:57;12.18;;;7.30;;
34828;SDS011;21042;47.620;12.188;2023-11-18T10:22:39;12.93;;;7.25;;
34828;SDS011;21042;47.620;12.188;2023-11-18T10:25:07;10.88;;;6.63;;
34828;SDS011;21042;47.620;12.188;2023-11-18T10:27:34;13.18;;;6.32;;
34828;SDS011;21042;47.620;12.188;2023-11-18T10:30:03;10.60;;;6.70;;
34828;SDS011;21042;47.620;12.188;2023-11-18T10:32:31;9.40;;;6.15;;
34828;SDS011;21042;47.620;12.188;2023-11-18T10:35:03;10.23;;;6.45;;
34828;SDS011;21042;47.620;12.188;2023-11-18T10:37:36;12.20;;;7.25;;
34828;SDS011;21042;47.620;12.188;2023-11-18T10:40:09;10.35;;;6.13;;
34828;SDS011;21042;47.620;12.188;2023-11-18T10:42:40;9.40;;;6.07;;
34828;SDS011;21042;47.620;12.188;2023-11-18T10:45:09;9.80;;;5.90;;
34828;SDS011;21042;47.620;12.188;2023-11-18T10:47:39;8.48;;;5.43;;
34828;SDS011;21042;47.620;12.188;2023-11-18T10:50:09;8.18;;;5.38;;
34828;SDS011;21042;47.620;12.188;2023-11-18T10:52:37;9.15;;;6.03;;
34828;SDS011;21042;47.620;12.188;2023-11-18T10:55:08;9.88;;;5.85;;
34828;SDS011;21042;47.620;12.188;2023-11-18T10:57:39;8.40;;;5.40;;
34828;SDS011;21042;47.620;12.188;2023-11-18T11:00:09;8.88;;;5.57;;
34828;SDS011;21042;47.620;12.188;2023-11-18T11:02:45;11.25;;;6.60;;
34828;SDS011;21042;47.620;12.188;2023-11-18T11:05:28;10.35;;;5.80;;
34828;SDS011;21042;47.620;12.188;2023-11-18T11:07:59;7.60;;;5.43;;
34828;SDS011;21042;47.620;12.188;2023-11-18T11:10:29;8.13;;;5.05;;
34828;SDS011;21042;47.620;12.188;2023-11-18T11:12:55;10.57;;;6.45;;
34828;SDS011;21042;47.620;12.188;2023-11-18T11:15:31;7.85;;;5.40;;
34828;SDS011;21042;47.620;12.188;2023-11-18T11:18:20;9.27;;;5.30;;
34828;SDS011;21042;47.620;12.188;2023-11-18T11:26:49;9.10;;;5.55;;
34828;SDS011;21042;47.620;12.188;2023-11-18T11:31:59;8.52;;;5.47;;
34828;SDS011;21042;47.620;12.188;2023-11-18T11:34:33;6.53;;;4.28;;
34828;SDS011;21042;47.620;12.188;2023-11-18T11:37:01;7.43;;;5.13;;
34828;SDS011;21042;47.620;12.188;2023-11-18T11:39:29;11.07;;;6.32;;
34828;SDS011;21042;47.620;12.188;2023-11-18T11:42:02;7.75;;;5.50;;
34828;SDS011;21042;47.620;12.188;2023-11-18T11:44:35;8.32;;;5.88;;
34828;SDS011;21042;47.620;12.188;2023-11-18T11:47:08;10.50;;;6.18;;
34828;SDS011;21042;47.620;12.188;2023-11-18T11:49:47;9.02;;;5.85;;
34828;SDS011;21042;47.620;12.188;2023-11-18T11:52:30;8.35;;;6.03;;
34828;SDS011;21042;47.620;12.188;2023-11-18T11:57:41;9.95;;;5.65;;
34828;SDS011;21042;47.620;12.188;2023-11-18T12:00:09;11.88;;;6.55;;
34828;SDS011;21042;47.620;12.188;2023-11-18T12:02:49;10.05;;;6.50;;
34828;SDS011;21042;47.620;12.188;2023-11-18T12:05:24;10.13;;;5.88;;
34828;SDS011;21042;47.620;12.188;2023-11-18T12:07:52;7.90;;;5.53;;
34828;SDS011;21042;47.620;12.188;2023-11-18T12:10:26;9.77;;;6.18;;
34828;SDS011;21042;47.620;12.188;2023-11-18T12:13:07;9.75;;;5.97;;
34828;SDS011;21042;47.620;12.188;2023-11-18T12:15:50;9.50;;;5.88;;
34828;SDS011;21042;47.620;12.188;2023-11-18T12:18:21;9.30;;;5.82;;
34828;SDS011;21042;47.620;12.188;2023-11-18T12:20:48;11.18;;;6.53;;
34828;SDS011;21042;47.620;12.188;2023-11-18T12:23:20;12.05;;;5.53;;
34828;SDS011;21042;47.620;12.188;2023-11-18T12:25:52;11.13;;;5.63;;
34828;SDS011;21042;47.620;12.188;2023-11-18T12:28:27;9.45;;;6.15;;
34828;SDS011;21042;47.620;12.188;2023-11-18T12:30:57;10.23;;;5.95;;
34828;SDS011;21042;47.620;12.188;2023-11-18T12:33:51;8.43;;;5.95;;
34828;SDS011;21042;47.620;12.188;2023-11-18T12:36:46;10.13;;;6.90;;
34828;SDS011;21042;47.620;12.188;2023-11-18T12:39:39;8.27;;;5.60;;
34828;SDS011;21042;47.620;12.188;2023-11-18T12:42:40;8.52;;;5.40;;
34828;SDS011;21042;47.620;12.188;2023-11-18T12:48:42;8.20;;;5.63;;
34828;SDS011;21042;47.620;12.188;2023-11-18T12:51:10;8.93;;;5.85;;
34828;SDS011;21042;47.620;12.188;2023-11-18T12:53:47;9.73;;;5.85;;
34828;SDS011;21042;47.620;12.188;2023-11-18T12:56:17;8.75;;;5.80;;
34828;SDS011;21042;47.620;12.188;2023-11-18T12:58:45;10.23;;;6.20;;
34828;SDS011;21042;47.620;12.188;2023-11-18T13:01:14;10.05;;;6.15;;
34828;SDS011;21042;47.620;12.188;2023-11-18T13:03:42;12.43;;;6.25;;
34828;SDS011;21042;47.620;12.188;2023-11-18T13:06:10;10.05;;;5.70;;
34828;SDS011;21042;47.620;12.188;2023-11-18T13:08:40;9.88;;;5.82;;
34828;SDS011;21042;47.620;12.188;2023-11-18T13:13:42;8.73;;;5.88;;
34828;SDS011;21042;47.620;12.188;2023-11-18T13:16:09;8.63;;;5.53;;
34828;SDS011;21042;47.620;12.188;2023-11-18T13:18:43;11.80;;;6.68;;
34828;SDS011;21042;47.620;12.188;2023-11-18T13:21:14;8.55;;;5.88;;
34828;SDS011;21042;47.620;12.188;2023-11-18T13:23:45;7.35;;;5.00;;
34828;SDS011;21042;47.620;12.188;2023-11-18T13:26:19;12.60;;;6.82;;
34828;SDS011;21042;47.620;12.188;2023-11-18T13:28:47;21.08;;;10.63;;
34828;SDS011;21042;47.620;12.188;2023-11-18T13:31:16;11.30;;;6.18;;
34828;SDS011;21042;47.620;12.188;2023-11-18T13:33:43;9.68;;;6.43;;
34828;SDS011;21042;47.620;12.188;2023-11-18T13:36:14;10.30;;;6.45;;
34828;SDS011;21042;47.620;12.188;2023-11-18T13:41:08;7.95;;;5.30;;
34828;SDS011;21042;47.620;12.188;2023-11-18T13:43:45;7.15;;;4.82;;
34828;SDS011;21042;47.620;12.188;2023-11-18T13:46:17;7.07;;;4.60;;
34828;SDS011;21042;47.620;12.188;2023-11-18T13:48:47;6.90;;;4.70;;
34828;SDS011;21042;47.620;12.188;2023-11-18T13:51:18;5.78;;;4.05;;
34828;SDS011;21042;47.620;12.188;2023-11-18T13:53:46;4.78;;;3.65;;
34828;SDS011;21042;47.620;12.188;2023-11-18T13:56:13;6.05;;;3.83;;
34828;SDS011;21042;47.620;12.188;2023-11-18T13:58:42;6.28;;;4.03;;
34828;SDS011;21042;47.620;12.188;2023-11-18T14:01:11;7.35;;;4.28;;
34828;SDS011;21042;47.620;12.188;2023-11-18T14:03:42;7.45;;;4.38;;
34828;SDS011;21042;47.620;12.188;2023-11-18T14:06:10;6.93;;;3.53;;
34828;SDS011;21042;47.620;12.188;2023-11-18T14:08:37;7.10;;;4.60;;
34828;SDS011;21042;47.620;12.188;2023-11-18T14:11:08;6.22;;;4.18;;
34828;SDS011;21042;47.620;12.188;2023-11-18T14:13:43;7.63;;;4.80;;
34828;SDS011;21042;47.620;12.188;2023-11-18T14:18:38;20.27;;;8.82;;
34828;SDS011;21042;47.620;12.188;2023-11-18T14:21:08;17.90;;;7.95;;
34828;SDS011;21042;47.620;12.188;2023-11-18T14:23:35;18.17;;;7.63;;
34828;SDS011;21042;47.620;12.188;2023-11-18T14:26:04;10.00;;;4.97;;
34828;SDS011;21042;47.620;12.188;2023-11-18T14:28:32;8.27;;;4.95;;
34828;SDS011;21042;47.620;12.188;2023-11-18T14:31:01;8.13;;;5.10;;
34828;SDS011;21042;47.620;12.188;2023-11-18T14:33:31;7.47;;;4.30;;
34828;SDS011;21042;47.620;12.188;2023-11-18T14:35:59;6.78;;;4.50;;
34828;SDS011;21042;47.620;12.188;2023-11-18T14:38:32;6.82;;;4.03;;
34828;SDS011;21042;47.620;12.188;2023-11-18T14:41:00;10.25;;;4.57;;
34828;SDS011;21042;47.620;12.188;2023-11-18T14:43:27;7.03;;;4.13;;
34828;SDS011;21042;47.620;12.188;2023-11-18T14:45:54;10.68;;;5.38;;
34828;SDS011;21042;47.620;12.188;2023-11-18T14:48:21;10.98;;;5.10;;
34828;SDS011;21042;47.620;12.188;2023-11-18T14:50:48;8.65;;;5.70;;
34828;SDS011;21042;47.620;12.188;2023-11-18T14:53:14;11.65;;;6.28;;
34828;SDS011;21042;47.620;12.188;2023-11-18T14:55:41;10.65;;;5.95;;
34828;SDS011;21042;47.620;12.188;2023-11-18T14:58:09;11.05;;;5.63;;
34828;SDS011;21042;47.620;12.188;2023-11-18T15:00:38;8.45;;;5.35;;
34828;SDS011;21042;47.620;12.188;2023-11-18T15:03:05;9.02;;;5.28;;
34828;SDS011;21042;47.620;12.188;2023-11-18T15:05:33;9.27;;;5.65;;
34828;SDS011;21042;47.620;12.188;2023-11-18T15:08:00;9.88;;;5.00;;
34828;SDS011;21042;47.620;12.188;2023-11-18T15:10:27;15.75;;;7.72;;
34828;SDS011;21042;47.620;12.188;2023-11-18T15:15:25;13.95;;;8.07;;
34828;SDS011;21042;47.620;12.188;2023-11-18T15:18:05;13.70;;;7.18;;
34828;SDS011;21042;47.620;12.188;2023-11-18T15:20:35;16.38;;;7.93;;
34828;SDS011;21042;47.620;12.188;2023-11-18T15:25:30;15.57;;;7.63;;
34828;SDS011;21042;47.620;12.188;2023-11-18T15:27:57;17.38;;;9.05;;
34828;SDS011;21042;47.620;12.188;2023-11-18T15:30:25;21.63;;;10.63;;
34828;SDS011;21042;47.620;12.188;2023-11-18T15:32:52;18.55;;;8.70;;
34828;SDS011;21042;47.620;12.188;2023-11-18T15:35:19;18.15;;;8.10;;
34828;SDS011;21042;47.620;12.188;2023-11-18T15:37:47;15.63;;;8.40;;
34828;SDS011;21042;47.620;12.188;2023-11-18T15:42:46;31.10;;;14.10;;
34828;SDS011;21042;47.620;12.188;2023-11-18T15:45:20;16.70;;;9.07;;
34828;SDS011;21042;47.620;12.188;2023-11-18T15:47:51;15.23;;;9.20;;
34828;SDS011;21042;47.620;12.188;2023-11-18T15:52:45;14.68;;;8.90;;
34828;SDS011;21042;47.620;12.188;2023-11-18T15:55:18;16.77;;;8.63;;
34828;SDS011;21042;47.620;12.188;2023-11-18T15:57:46;21.73;;;11.52;;
34828;SDS011;21042;47.620;12.188;2023-11-18T16:00:14;12.48;;;7.63;;
34828;SDS011;21042;47.620;12.188;2023-11-18T16:02:43;26.75;;;12.27;;